createdAt,value
2017-11-12T00:00:13.571Z,7.70
2017-11-12T00:02:41.234Z,7.80
2017-11-12T00:05:08.867Z,7.80
2017-11-12T00:07:37.309Z,7.80
2017-11-12T00:10:05.021Z,7.70
2017-11-12T00:12:33.429Z,7.70
2017-11-12T00:15:01.908Z,7.70
2017-11-12T00:17:29.584Z,7.70
2017-11-12T00:19:57.245Z,7.80
2017-11-12T00:22:24.959Z,7.70
2017-11-12T00:24:53.377Z,7.80
2017-11-12T00:27:21.048Z,7.80
2017-11-12T00:29:48.707Z,7.80
2017-11-12T00:32:16.352Z,7.90
2017-11-12T00:34:44.018Z,7.80
2017-11-12T00:37:11.997Z,7.80
2017-11-12T00:39:39.682Z,7.90
2017-11-12T00:42:07.403Z,7.80
2017-11-12T00:44:35.127Z,7.90
2017-11-12T00:47:03.539Z,7.90
2017-11-12T00:49:31.165Z,7.90
2017-11-12T00:51:59.596Z,7.80
2017-11-12T00:54:27.225Z,7.80
2017-11-12T00:56:54.887Z,7.80
2017-11-12T00:59:22.553Z,7.80
2017-11-12T01:01:50.254Z,7.80
2017-11-12T01:04:17.945Z,7.70
2017-11-12T01:06:46.357Z,7.80
2017-11-12T01:09:14.041Z,7.80
2017-11-12T01:11:41.762Z,7.70
2017-11-12T01:14:09.528Z,7.70
2017-11-12T01:16:37.192Z,7.60
2017-11-12T01:19:04.900Z,7.70
2017-11-12T01:21:32.545Z,7.60
2017-11-12T01:24:00.209Z,7.60
2017-11-12T01:26:27.970Z,7.60
2017-11-12T01:28:55.588Z,7.50
2017-11-12T01:31:23.248Z,7.60
2017-11-12T01:33:50.875Z,7.60
2017-11-12T01:36:18.638Z,7.60
2017-11-12T01:38:46.323Z,7.60
2017-11-12T01:41:14.773Z,6.60
2017-11-12T01:43:42.463Z,6.60
2017-11-12T01:46:10.157Z,6.20
2017-11-12T01:48:37.908Z,5.90
2017-11-12T01:51:06.356Z,5.70
2017-11-12T01:53:34.034Z,5.60
2017-11-12T01:56:01.846Z,5.60
2017-11-12T01:58:29.575Z,5.50
2017-11-12T02:00:57.268Z,5.50
2017-11-12T02:03:25.846Z,5.50
2017-11-12T02:05:53.512Z,5.50
2017-11-12T02:08:21.193Z,5.50
2017-11-12T02:10:49.643Z,5.40
2017-11-12T02:13:17.310Z,5.40
2017-11-12T02:15:45.048Z,5.40
2017-11-12T02:18:12.787Z,5.40
2017-11-12T02:20:40.571Z,5.40
2017-11-12T02:23:08.369Z,5.40
2017-11-12T02:25:36.074Z,5.40
2017-11-12T02:28:03.804Z,5.40
2017-11-12T02:30:31.519Z,5.30
2017-11-12T02:32:59.268Z,5.30
2017-11-12T02:35:27.062Z,5.30
2017-11-12T02:37:54.848Z,5.30
2017-11-12T02:40:22.599Z,5.40
2017-11-12T02:42:50.284Z,5.40
2017-11-12T02:45:18.790Z,5.40
2017-11-12T02:47:46.609Z,5.40
2017-11-12T02:50:14.396Z,5.40
2017-11-12T02:52:42.160Z,5.40
2017-11-12T02:55:10.714Z,5.30
2017-11-12T02:57:38.518Z,5.30
2017-11-12T03:00:06.258Z,5.30
2017-11-12T03:02:33.983Z,5.40
2017-11-12T03:05:01.653Z,5.30
2017-11-12T03:07:29.345Z,5.30
2017-11-12T03:09:57.828Z,5.30
2017-11-12T03:12:26.241Z,5.20
2017-11-12T03:14:53.951Z,5.20
2017-11-12T03:17:21.630Z,5.20
2017-11-12T03:19:50.059Z,5.10
2017-11-12T03:22:17.744Z,5.10
2017-11-12T03:24:45.406Z,5.00
2017-11-12T03:27:13.593Z,5.00
2017-11-12T03:29:41.295Z,5.00
2017-11-12T03:32:09.005Z,4.90
2017-11-12T03:34:36.649Z,4.90
2017-11-12T03:37:04.309Z,4.90
2017-11-12T03:39:31.940Z,4.90
2017-11-12T03:41:59.605Z,4.90
2017-11-12T03:44:27.288Z,4.90
2017-11-12T03:46:55.018Z,4.80
2017-11-12T03:49:22.747Z,4.80
2017-11-12T03:51:51.196Z,4.80
2017-11-12T03:54:18.894Z,4.80
2017-11-12T03:56:47.285Z,4.80
2017-11-12T03:59:14.990Z,4.80
2017-11-12T04:01:42.665Z,4.80
2017-11-12T04:04:10.356Z,4.80
2017-11-12T04:06:38.809Z,4.70
2017-11-12T04:09:06.467Z,4.70
2017-11-12T04:11:34.156Z,4.70
2017-11-12T04:14:01.795Z,4.70
2017-11-12T04:16:29.480Z,4.70
2017-11-12T04:18:57.134Z,4.70
2017-11-12T04:21:25.604Z,4.70
2017-11-12T04:23:54.066Z,4.60
2017-11-12T04:26:21.725Z,4.60
2017-11-12T04:28:49.405Z,4.60
2017-11-12T04:31:18.601Z,4.60
2017-11-12T04:33:46.422Z,4.60
2017-11-12T04:36:14.058Z,4.60
2017-11-12T04:38:41.697Z,4.50
2017-11-12T04:41:09.391Z,4.60
2017-11-12T04:43:37.049Z,4.50
2017-11-12T04:46:04.734Z,4.50
2017-11-12T04:48:32.396Z,4.40
2017-11-12T04:51:00.073Z,4.40
2017-11-12T04:53:27.704Z,4.40
2017-11-12T04:55:55.384Z,4.40
2017-11-12T04:58:23.097Z,4.40
2017-11-12T05:00:50.854Z,4.40
2017-11-12T05:03:18.550Z,4.30
2017-11-12T05:05:46.212Z,4.30
2017-11-12T05:08:13.922Z,4.30
2017-11-12T05:10:42.364Z,4.30
2017-11-12T05:13:10.054Z,4.30
2017-11-12T05:15:38.468Z,4.30
2017-11-12T05:18:06.140Z,4.30
2017-11-12T05:20:33.771Z,4.20
2017-11-12T05:23:01.461Z,4.20
2017-11-12T05:25:29.134Z,4.20
2017-11-12T05:27:56.769Z,4.20
2017-11-12T05:30:24.523Z,4.20
2017-11-12T05:32:52.171Z,4.20
2017-11-12T05:35:19.849Z,4.20
2017-11-12T05:37:47.612Z,4.10
2017-11-12T05:40:15.274Z,4.10
2017-11-12T05:42:42.954Z,4.10
2017-11-12T05:45:10.781Z,4.10
2017-11-12T05:47:38.440Z,4.10
2017-11-12T05:50:06.117Z,4.10
2017-11-12T05:52:33.797Z,4.10
2017-11-12T05:55:01.434Z,4.10
2017-11-12T05:57:29.099Z,4.10
2017-11-12T05:59:56.758Z,4.10
2017-11-12T06:02:24.513Z,4.10
2017-11-12T06:04:52.142Z,4.10
2017-11-12T06:07:20.743Z,4.10
2017-11-12T06:09:48.448Z,4.10
2017-11-12T06:12:16.204Z,4.10
2017-11-12T06:14:43.957Z,4.10
2017-11-12T06:17:11.582Z,4.00
2017-11-12T06:19:40.115Z,4.10
2017-11-12T06:22:07.803Z,4.10
2017-11-12T06:24:36.285Z,4.10
2017-11-12T06:27:04.729Z,4.10
2017-11-12T06:29:32.433Z,4.10
2017-11-12T06:32:00.826Z,4.10
2017-11-12T06:34:28.529Z,4.10
2017-11-12T06:36:56.235Z,4.10
2017-11-12T06:39:24.717Z,4.10
2017-11-12T06:41:53.139Z,4.10
2017-11-12T06:44:20.845Z,4.10
2017-11-12T06:46:49.270Z,4.20
2017-11-12T06:49:16.909Z,4.20
2017-11-12T06:51:44.603Z,4.10
2017-11-12T06:54:12.249Z,4.20
2017-11-12T06:56:39.910Z,4.20
2017-11-12T06:59:07.606Z,4.20
2017-11-12T07:01:35.318Z,4.20
2017-11-12T07:04:02.957Z,4.20
2017-11-12T07:06:31.399Z,4.10
2017-11-12T07:08:59.031Z,4.10
2017-11-12T07:11:26.709Z,4.10
2017-11-12T07:13:54.347Z,4.10
2017-11-12T07:16:22.264Z,4.10
2017-11-12T07:18:50.013Z,4.10
2017-11-12T07:21:17.639Z,4.10
2017-11-12T07:23:45.318Z,4.10
2017-11-12T07:26:12.948Z,4.10
2017-11-12T07:28:40.768Z,4.10
2017-11-12T07:31:09.174Z,4.10
2017-11-12T07:33:36.884Z,4.00
2017-11-12T07:36:04.523Z,4.10
2017-11-12T07:38:32.173Z,4.00
2017-11-12T07:40:59.861Z,4.00
2017-11-12T07:43:27.510Z,4.00
2017-11-12T07:45:55.164Z,4.00
2017-11-12T07:48:22.917Z,4.00
2017-11-12T07:50:50.713Z,4.00
2017-11-12T07:53:18.364Z,4.00
2017-11-12T07:55:45.986Z,4.10
2017-11-12T07:58:13.646Z,4.10
2017-11-12T08:00:41.277Z,4.10
2017-11-12T08:03:09.750Z,4.00
2017-11-12T08:05:37.428Z,4.00
2017-11-12T08:08:05.932Z,4.00
2017-11-12T08:10:33.626Z,4.00
2017-11-12T08:13:01.311Z,4.00
2017-11-12T08:15:28.972Z,4.00
2017-11-12T08:17:56.630Z,4.00
2017-11-12T08:20:24.275Z,4.00
2017-11-12T08:22:52.013Z,4.00
2017-11-12T08:25:19.654Z,3.90
2017-11-12T08:27:47.325Z,3.90
2017-11-12T08:30:15.035Z,4.00
2017-11-12T08:32:42.688Z,4.00
2017-11-12T08:35:10.448Z,4.00
2017-11-12T08:37:38.123Z,4.10
2017-11-12T08:40:05.846Z,4.10
2017-11-12T08:42:33.543Z,4.10
2017-11-12T08:45:01.297Z,4.10
2017-11-12T08:47:28.934Z,4.10
2017-11-12T08:49:56.583Z,4.10
2017-11-12T08:52:24.310Z,4.10
2017-11-12T08:54:52.709Z,4.10
2017-11-12T08:57:20.377Z,4.10
2017-11-12T08:59:48.058Z,4.10
2017-11-12T09:02:15.760Z,4.10
2017-11-12T09:04:43.459Z,4.10
2017-11-12T09:07:11.217Z,4.10
2017-11-12T09:09:38.935Z,4.10
2017-11-12T09:12:06.715Z,4.20
2017-11-12T09:14:35.201Z,4.30
2017-11-12T09:17:02.905Z,4.30
2017-11-12T09:19:30.594Z,4.30
2017-11-12T09:21:58.266Z,4.30
2017-11-12T09:24:26.677Z,4.40
2017-11-12T09:26:54.388Z,4.30
2017-11-12T09:29:22.201Z,4.40
2017-11-12T09:31:49.946Z,4.40
2017-11-12T09:34:18.416Z,4.50
2017-11-12T09:36:46.824Z,4.60
2017-11-12T09:39:14.577Z,4.60
2017-11-12T09:41:42.274Z,4.60
2017-11-12T09:44:09.973Z,4.50
2017-11-12T09:46:37.876Z,4.60
2017-11-12T09:49:05.565Z,4.60
2017-11-12T09:51:34.432Z,4.60
2017-11-12T09:54:02.905Z,4.60
2017-11-12T09:56:30.614Z,4.60
2017-11-12T09:58:58.300Z,4.60
2017-11-12T10:01:26.782Z,4.70
2017-11-12T10:03:54.410Z,4.60
2017-11-12T10:06:22.123Z,4.70
2017-11-12T10:08:49.788Z,4.80
2017-11-12T10:11:17.504Z,4.80
2017-11-12T10:13:45.116Z,4.80
2017-11-12T10:16:13.349Z,4.80
2017-11-12T10:18:41.755Z,4.70
2017-11-12T10:21:09.439Z,4.70
2017-11-12T10:23:37.098Z,4.70
2017-11-12T10:26:04.786Z,4.70
2017-11-12T10:28:33.211Z,4.70
2017-11-12T10:31:00.899Z,4.80
2017-11-12T10:33:28.592Z,4.80
2017-11-12T10:35:56.254Z,4.80
2017-11-12T10:38:23.969Z,4.80
2017-11-12T10:40:51.617Z,4.90
2017-11-12T10:43:19.303Z,4.90
2017-11-12T10:45:47.173Z,4.90
2017-11-12T10:48:14.801Z,5.00
2017-11-12T10:50:42.465Z,5.00
2017-11-12T10:53:10.123Z,5.10
2017-11-12T10:55:37.914Z,5.10
2017-11-12T10:58:05.574Z,5.20
2017-11-12T11:00:33.232Z,5.10
2017-11-12T11:03:00.994Z,5.10
2017-11-12T11:05:28.728Z,5.10
2017-11-12T11:07:56.383Z,5.20
2017-11-12T11:10:24.019Z,5.20
2017-11-12T11:12:52.581Z,5.30
2017-11-12T11:15:20.205Z,5.30
2017-11-12T11:17:50.993Z,5.30
2017-11-12T11:20:18.643Z,5.40
2017-11-12T11:22:46.296Z,5.50
2017-11-12T11:25:13.974Z,5.50
2017-11-12T11:27:42.422Z,5.70
2017-11-12T11:30:10.076Z,5.60
2017-11-12T11:32:37.715Z,5.80
2017-11-12T11:35:05.596Z,5.90
2017-11-12T11:37:33.278Z,6.00
2017-11-12T11:40:00.943Z,6.10
2017-11-12T11:42:28.588Z,6.20
2017-11-12T11:44:56.235Z,6.30
2017-11-12T11:47:23.952Z,6.40
2017-11-12T11:49:51.605Z,6.50
2017-11-12T11:52:20.028Z,6.50
2017-11-12T11:54:47.708Z,6.60
2017-11-12T11:57:16.827Z,6.60
2017-11-12T11:59:44.713Z,6.60
2017-11-12T12:02:12.444Z,6.70
2017-11-12T12:04:40.130Z,6.70
2017-11-12T12:07:07.877Z,6.80
2017-11-12T12:09:36.418Z,6.80
2017-11-12T12:12:04.125Z,6.80
2017-11-12T12:14:32.656Z,6.90
2017-11-12T12:17:00.392Z,6.90
2017-11-12T12:19:28.096Z,7.00
2017-11-12T12:21:55.789Z,7.30
2017-11-12T12:24:23.569Z,7.60
2017-11-12T12:26:51.322Z,7.80
2017-11-12T12:29:19.000Z,8.00
2017-11-12T12:31:46.685Z,8.10
2017-11-12T12:34:14.405Z,8.20
2017-11-12T12:36:42.194Z,8.40
2017-11-12T12:39:09.920Z,8.40
2017-11-12T12:41:37.806Z,8.40
2017-11-12T12:44:05.492Z,8.40
2017-11-12T12:46:33.215Z,8.50
2017-11-12T12:49:01.673Z,8.60
2017-11-12T12:51:29.354Z,8.60
2017-11-12T12:53:57.243Z,8.60
2017-11-12T12:56:25.529Z,8.70
2017-11-12T12:58:53.436Z,8.70
2017-11-12T13:01:21.137Z,8.70
2017-11-12T13:03:48.813Z,8.80
2017-11-12T13:06:16.796Z,8.80
2017-11-12T13:08:44.544Z,9.00
2017-11-12T13:11:12.304Z,9.00
2017-11-12T13:13:40.799Z,9.00
2017-11-12T13:16:08.466Z,8.90
2017-11-12T13:18:36.155Z,9.00
2017-11-12T13:21:03.810Z,8.90
2017-11-12T13:23:31.485Z,9.00
2017-11-12T13:25:59.906Z,8.90
2017-11-12T13:28:28.443Z,8.80
2017-11-12T13:30:56.140Z,8.90
2017-11-12T13:33:23.883Z,8.90
2017-11-12T13:35:51.836Z,8.90
2017-11-12T13:38:20.435Z,8.90
2017-11-12T13:40:48.918Z,8.90
2017-11-12T13:43:16.708Z,8.90
2017-11-12T13:45:44.445Z,8.90
2017-11-12T13:48:12.109Z,8.90
2017-11-12T13:50:39.854Z,8.90
2017-11-12T13:53:07.481Z,9.00
2017-11-12T13:55:35.084Z,9.20
2017-11-12T13:58:02.758Z,9.20
2017-11-12T14:00:30.461Z,9.10
2017-11-12T14:02:58.118Z,9.10
2017-11-12T14:05:25.808Z,9.10
2017-11-12T14:07:54.267Z,9.10
2017-11-12T14:10:23.009Z,9.10
2017-11-12T14:12:50.705Z,9.30
2017-11-12T14:15:18.389Z,9.30
2017-11-12T14:17:46.050Z,9.30
2017-11-12T14:20:14.457Z,9.40
2017-11-12T14:22:42.268Z,9.40
2017-11-12T14:25:10.127Z,9.40
2017-11-12T14:27:37.779Z,9.50
2017-11-12T14:30:05.473Z,9.30
2017-11-12T14:32:34.068Z,9.20
2017-11-12T14:35:02.516Z,9.00
2017-11-12T14:37:30.155Z,9.10
2017-11-12T14:39:57.918Z,9.00
2017-11-12T14:42:26.172Z,8.90
2017-11-12T14:44:54.279Z,8.90
2017-11-12T14:47:21.932Z,8.90
2017-11-12T14:49:49.669Z,9.00
2017-11-12T14:52:17.329Z,9.00
2017-11-12T14:54:44.990Z,9.00
2017-11-12T14:57:12.700Z,9.00
2017-11-12T14:59:40.982Z,9.00
2017-11-12T15:02:09.522Z,9.10
2017-11-12T15:04:37.437Z,9.10
2017-11-12T15:07:05.921Z,9.10
2017-11-12T15:09:34.350Z,9.10
2017-11-12T15:12:02.031Z,9.10
2017-11-12T15:14:30.501Z,9.00
2017-11-12T15:16:58.981Z,9.00
2017-11-12T15:19:26.731Z,9.00
2017-11-12T15:21:54.497Z,9.00
2017-11-12T15:24:22.167Z,9.00
2017-11-12T15:26:50.010Z,9.00
2017-11-12T15:29:17.628Z,9.00
2017-11-12T15:31:46.122Z,7.10
2017-11-12T15:34:13.775Z,7.10
2017-11-12T15:36:41.616Z,6.40
2017-11-12T15:39:10.016Z,5.50
2017-11-12T15:41:38.487Z,5.30
2017-11-12T15:44:06.148Z,5.30
2017-11-12T15:46:33.820Z,5.20
2017-11-12T15:49:01.559Z,5.00
2017-11-12T15:51:29.973Z,4.70
2017-11-12T15:53:58.396Z,4.60
2017-11-12T15:56:26.047Z,4.60
2017-11-12T15:58:53.777Z,4.50
2017-11-12T16:01:21.474Z,4.50
2017-11-12T16:03:49.779Z,4.50
2017-11-12T16:06:18.258Z,4.40
2017-11-12T16:08:46.636Z,4.40
2017-11-12T16:11:14.313Z,4.40
2017-11-12T16:13:41.969Z,4.40
2017-11-12T16:16:09.632Z,4.40
2017-11-12T16:18:37.297Z,4.40
2017-11-12T16:21:05.052Z,4.30
2017-11-12T16:23:32.838Z,4.30
2017-11-12T16:26:00.539Z,4.30
2017-11-12T16:28:28.255Z,4.30
2017-11-12T16:30:55.968Z,4.20
2017-11-12T16:33:23.648Z,4.20
2017-11-12T16:35:51.374Z,4.10
2017-11-12T16:38:19.234Z,4.10
2017-11-12T16:40:47.729Z,4.00
2017-11-12T16:43:15.465Z,4.00
2017-11-12T16:45:43.157Z,4.00
2017-11-12T16:48:10.953Z,4.00
2017-11-12T16:50:38.650Z,4.00
2017-11-12T16:53:06.391Z,4.00
2017-11-12T16:55:34.119Z,3.90
2017-11-12T16:58:03.177Z,3.90
2017-11-12T17:00:31.030Z,3.90
2017-11-12T17:02:58.772Z,3.80
2017-11-12T17:05:26.424Z,3.80
2017-11-12T17:07:54.090Z,3.80
2017-11-12T17:10:21.781Z,3.70
2017-11-12T17:12:49.448Z,3.70
2017-11-12T17:15:17.862Z,3.80
2017-11-12T17:17:46.309Z,3.80
2017-11-12T17:20:13.985Z,3.80
2017-11-12T17:22:41.682Z,3.80
2017-11-12T17:25:09.290Z,4.00
2017-11-12T17:27:36.966Z,4.00
2017-11-12T17:30:04.612Z,4.00
2017-11-12T17:32:32.274Z,4.10
2017-11-12T17:34:59.901Z,4.10
2017-11-12T17:37:28.054Z,4.10
2017-11-12T17:39:55.725Z,4.10
2017-11-12T17:42:24.222Z,4.10
2017-11-12T17:44:51.905Z,4.00
2017-11-12T17:47:19.566Z,4.00
2017-11-12T17:49:47.251Z,3.90
2017-11-12T17:52:15.638Z,3.90
2017-11-12T17:54:44.232Z,3.90
2017-11-12T17:57:11.857Z,3.90
2017-11-12T17:59:39.496Z,3.90
2017-11-12T18:02:07.262Z,3.90
2017-11-12T18:04:35.070Z,3.80
2017-11-12T18:07:02.794Z,3.80
2017-11-12T18:09:30.877Z,3.70
2017-11-12T18:11:58.716Z,3.70
2017-11-12T18:14:26.509Z,3.70
2017-11-12T18:16:54.344Z,3.60
2017-11-12T18:19:22.131Z,3.60
2017-11-12T18:21:50.161Z,3.50
2017-11-12T18:24:18.064Z,3.50
2017-11-12T18:26:45.903Z,3.40
2017-11-12T18:29:13.833Z,3.30
2017-11-12T18:31:42.113Z,3.30
2017-11-12T18:34:10.246Z,3.20
2017-11-12T18:36:38.941Z,3.10
2017-11-12T18:39:07.505Z,3.00
2017-11-12T18:41:35.300Z,3.00
2017-11-12T18:44:03.158Z,3.00
2017-11-12T18:46:31.609Z,2.90
2017-11-12T18:48:59.330Z,2.90
2017-11-12T18:51:27.605Z,2.90
2017-11-12T18:53:55.414Z,2.80
2017-11-12T18:56:28.378Z,2.70
2017-11-12T18:58:57.730Z,2.70
2017-11-12T19:01:31.067Z,2.70
2017-11-12T19:07:11.327Z,2.60
2017-11-12T19:09:39.126Z,2.60
2017-11-12T19:12:10.378Z,2.60
2017-11-12T19:14:38.321Z,2.60
2017-11-12T19:17:08.763Z,2.60
2017-11-12T19:19:37.289Z,2.50
2017-11-12T19:22:05.808Z,2.50
2017-11-12T19:24:39.306Z,2.50
2017-11-12T19:27:10.747Z,2.50
2017-11-12T19:29:42.098Z,2.40
2017-11-12T19:32:09.833Z,2.40
2017-11-12T19:34:37.561Z,2.40
2017-11-12T19:37:06.043Z,2.40
2017-11-12T19:39:36.149Z,2.40
2017-11-12T19:42:05.573Z,2.40
2017-11-12T19:44:33.409Z,2.40
2017-11-12T19:47:01.202Z,2.40
2017-11-12T19:49:29.041Z,2.40
2017-11-12T19:51:57.628Z,2.40
2017-11-12T19:54:26.075Z,2.50
2017-11-12T19:56:53.808Z,2.50
2017-11-12T19:59:21.579Z,2.50
2017-11-12T20:01:49.381Z,2.50
2017-11-12T20:04:17.249Z,2.50
2017-11-12T20:06:45.823Z,2.60
2017-11-12T20:09:13.522Z,2.60
2017-11-12T20:11:41.276Z,2.60
2017-11-12T20:14:09.209Z,2.60
2017-11-12T20:16:37.268Z,2.70
2017-11-12T20:19:05.224Z,2.70
2017-11-12T20:21:33.025Z,2.70
2017-11-12T20:24:01.597Z,2.70
2017-11-12T20:26:29.347Z,2.70
2017-11-12T20:28:57.233Z,2.70
2017-11-12T20:31:25.677Z,2.70
2017-11-12T20:33:53.470Z,2.70
2017-11-12T20:36:22.022Z,2.80
2017-11-12T20:38:49.808Z,2.80
2017-11-12T20:41:17.536Z,2.80
2017-11-12T20:43:45.363Z,2.80
2017-11-12T20:46:13.246Z,2.80
2017-11-12T20:48:40.998Z,2.80
2017-11-12T20:51:09.694Z,2.80
2017-11-12T20:53:37.446Z,2.70
2017-11-12T20:56:05.270Z,2.80
2017-11-12T20:58:33.716Z,2.70
2017-11-12T21:01:01.918Z,2.70
2017-11-12T21:03:31.287Z,2.80
2017-11-12T21:06:01.585Z,2.80
2017-11-12T21:08:29.246Z,2.80
2017-11-12T21:10:56.940Z,2.80
2017-11-12T21:13:24.633Z,2.80
2017-11-12T21:15:53.118Z,2.80
2017-11-12T21:18:21.532Z,2.80
2017-11-12T21:23:55.128Z,2.90
2017-11-12T21:26:23.074Z,2.80
2017-11-12T21:28:54.089Z,2.70
2017-11-12T21:31:25.373Z,2.70
2017-11-12T21:34:00.759Z,2.70
2017-11-12T21:36:44.254Z,2.60
2017-11-12T21:39:12.386Z,2.50
2017-11-12T21:41:40.837Z,2.50
2017-11-12T21:44:09.481Z,2.50
2017-11-12T21:46:37.262Z,2.50
2017-11-12T21:49:05.064Z,2.50
2017-11-12T21:51:32.709Z,2.50
2017-11-12T21:54:00.473Z,2.50
2017-11-12T21:56:28.201Z,2.50
2017-11-12T21:58:56.148Z,2.50
2017-11-12T22:01:24.816Z,2.50
2017-11-12T22:03:53.300Z,2.60
2017-11-12T22:06:20.947Z,2.50
2017-11-12T22:08:48.707Z,2.50
2017-11-12T22:11:17.128Z,2.40
2017-11-12T22:13:44.776Z,2.40
2017-11-12T22:16:12.636Z,2.40
2017-11-12T22:18:41.187Z,2.30
2017-11-12T22:21:09.984Z,2.20
2017-11-12T22:23:39.278Z,2.20
2017-11-12T22:26:07.149Z,2.20
2017-11-12T22:28:34.849Z,2.20
2017-11-12T22:31:02.509Z,2.20
2017-11-12T22:33:30.192Z,2.20
2017-11-12T22:35:58.166Z,2.20
2017-11-12T22:38:25.921Z,2.20
2017-11-12T22:40:53.872Z,2.20
2017-11-12T22:43:21.644Z,2.20
2017-11-12T22:45:49.442Z,2.30
2017-11-12T22:48:17.413Z,2.30
2017-11-12T22:50:46.041Z,2.30
2017-11-12T22:53:14.125Z,2.30
2017-11-12T22:55:41.858Z,2.40
2017-11-12T22:58:09.681Z,2.40
2017-11-12T23:00:37.773Z,2.40
2017-11-12T23:03:06.163Z,2.50
2017-11-12T23:05:33.796Z,2.50
2017-11-12T23:08:01.444Z,2.50
2017-11-12T23:10:29.083Z,2.50
2017-11-12T23:12:56.740Z,2.60
2017-11-12T23:15:24.357Z,2.60
2017-11-12T23:17:52.774Z,2.50
2017-11-12T23:20:20.397Z,2.50
2017-11-12T23:22:48.893Z,2.60
2017-11-12T23:25:16.589Z,2.50
2017-11-12T23:27:44.386Z,2.60
2017-11-12T23:30:12.064Z,2.60
2017-11-12T23:32:40.466Z,2.60
2017-11-12T23:35:08.117Z,2.50
2017-11-12T23:37:35.755Z,2.50
2017-11-12T23:40:04.192Z,2.60
2017-11-12T23:42:32.857Z,2.60
2017-11-12T23:45:00.516Z,2.60
2017-11-12T23:47:28.131Z,2.60
2017-11-12T23:49:55.784Z,2.60
2017-11-12T23:52:23.451Z,2.60
2017-11-12T23:54:51.854Z,2.60
2017-11-12T23:57:19.530Z,2.60
2017-11-12T23:59:47.929Z,2.70
